Time;durP1;ratioP1;P1;durP2;ratioP2;P2;SDS_P1;SDS_P2;PMS_P1;PMS_P2;Temp;Humidity;BMP_temperature;BMP_pressure;BME280_temperature;BME280_humidity;BME280_pressure;Samples;Min_cycle;Max_cycle;Signal;HPM_P1;HPM_P2
2023/06/02 00:01:32;;;;;;;3.65;2.10;;;16.40;62.60;;;;;;4992024;28;20058;-73
2023/06/02 00:04:01;;;;;;;3.55;2.03;;;16.40;62.80;;;;;;4996865;28;20038;-73
2023/06/02 00:06:33;;;;;;;4.43;2.30;;;16.40;62.60;;;;;;4987040;28;20629;-74
2023/06/02 00:09:04;;;;;;;2.75;2.00;;;16.30;62.70;;;;;;4976894;28;20046;-73
2023/06/02 00:11:34;;;;;;;3.15;1.92;;;16.40;62.60;;;;;;4984446;28;20054;-73
2023/06/02 00:14:02;;;;;;;3.75;2.00;;;16.20;63.00;;;;;;4991485;28;20511;-74
2023/06/02 00:16:30;;;;;;;3.13;1.98;;;16.20;62.80;;;;;;4993308;28;20088;-73
2023/06/02 00:18:57;;;;;;;4.97;2.40;;;16.30;62.60;;;;;;4997665;28;20089;-73
2023/06/02 00:21:26;;;;;;;4.68;2.17;;;16.20;62.70;;;;;;4996296;28;20108;-76
2023/06/02 00:23:53;;;;;;;5.90;2.58;;;16.10;62.70;;;;;;4996831;28;20056;-76
2023/06/02 00:26:21;;;;;;;3.88;2.33;;;16.20;62.40;;;;;;4995658;28;20050;-69
2023/06/02 00:28:51;;;;;;;4.35;2.30;;;16.10;62.40;;;;;;4993736;28;20111;-69
2023/06/02 00:31:18;;;;;;;4.40;2.17;;;16.20;62.30;;;;;;4994733;28;20053;-62
2023/06/02 00:33:45;;;;;;;4.75;2.50;;;16.10;62.60;;;;;;4992637;28;20068;-63
2023/06/02 00:36:12;;;;;;;5.60;2.65;;;16.10;62.80;;;;;;4994909;28;20780;-73
2023/06/02 00:38:41;;;;;;;7.32;2.70;;;16.00;63.10;;;;;;4981244;28;20148;-74
2023/06/02 00:41:08;;;;;;;4.00;2.35;;;16.00;63.10;;;;;;4996667;28;20116;-67
2023/06/02 00:43:36;;;;;;;4.35;2.05;;;15.90;63.30;;;;;;4997912;28;20555;-68
2023/06/02 00:46:03;;;;;;;4.38;2.55;;;16.00;63.10;;;;;;4998771;28;20054;-75
2023/06/02 00:48:30;;;;;;;5.55;2.72;;;15.90;63.20;;;;;;4995206;28;20108;-76
2023/06/02 00:50:57;;;;;;;4.05;2.25;;;15.90;63.20;;;;;;4995134;28;20046;-64
2023/06/02 00:53:24;;;;;;;4.55;2.83;;;15.90;63.30;;;;;;4994255;28;20050;-63
2023/06/02 00:55:53;;;;;;;6.53;2.72;;;15.80;63.60;;;;;;4990694;28;20050;-67
2023/06/02 00:58:21;;;;;;;4.97;2.22;;;15.60;64.20;;;;;;4994321;28;20053;-67
2023/06/02 01:00:49;;;;;;;4.32;2.45;;;15.60;64.10;;;;;;4993516;28;20054;-67
2023/06/02 01:03:21;;;;;;;4.00;2.22;;;15.60;64.40;;;;;;4987606;28;20409;-69
2023/06/02 01:05:48;;;;;;;;;;;15.50;64.80;;;;;;4992540;28;20515;-62
2023/06/02 01:08:17;;;;;;;4.03;2.35;;;15.40;65.10;;;;;;4993225;28;20413;-63
2023/06/02 01:10:44;;;;;;;5.30;2.63;;;15.40;65.20;;;;;;4969094;28;20046;-79
2023/06/02 01:13:12;;;;;;;4.30;2.17;;;15.40;65.40;;;;;;4992056;28;20111;-78
2023/06/02 01:15:39;;;;;;;4.55;2.72;;;15.30;65.60;;;;;;4995696;28;20054;-68
2023/06/02 01:18:10;;;;;;;4.30;2.15;;;15.20;65.90;;;;;;4998774;28;20051;-69
2023/06/02 01:20:44;;;;;;;4.68;2.50;;;15.20;66.00;;;;;;4979433;28;20101;-69
2023/06/02 01:23:16;;;;;;;5.57;2.50;;;15.10;65.90;;;;;;4996546;28;20097;-69
2023/06/02 01:25:46;;;;;;;4.00;2.42;;;15.10;66.10;;;;;;4996706;28;20046;-75
2023/06/02 01:28:13;;;;;;;5.93;2.40;;;15.10;66.20;;;;;;4997677;28;20071;-76
2023/06/02 01:30:41;;;;;;;4.88;2.40;;;15.00;66.40;;;;;;4997143;28;20057;-75
2023/06/02 01:33:16;;;;;;;5.07;2.70;;;14.90;66.50;;;;;;4994886;28;20046;-74
2023/06/02 01:35:46;;;;;;;4.30;2.28;;;14.90;66.70;;;;;;4981222;28;20482;-75
2023/06/02 01:38:14;;;;;;;3.83;2.38;;;14.90;66.60;;;;;;4999429;28;20569;-74
2023/06/02 01:40:44;;;;;;;4.05;2.45;;;15.00;66.50;;;;;;4980512;28;20137;-62
2023/06/02 01:43:12;;;;;;;3.95;2.17;;;14.90;66.70;;;;;;4994793;28;20042;-62
2023/06/02 01:45:42;;;;;;;4.47;2.40;;;14.90;66.80;;;;;;4995346;28;20054;-69
2023/06/02 01:48:10;;;;;;;4.32;2.42;;;14.80;67.00;;;;;;4982075;28;20050;-68
2023/06/02 01:50:38;;;;;;;4.88;2.55;;;14.70;67.20;;;;;;4981172;28;20069;-75
2023/06/02 01:53:05;;;;;;;4.40;2.42;;;14.70;67.30;;;;;;4998984;28;20043;-76
2023/06/02 01:55:34;;;;;;;4.45;2.38;;;14.60;67.60;;;;;;4996692;28;20050;-69
2023/06/02 01:58:02;;;;;;;5.55;2.28;;;14.60;67.80;;;;;;4973711;28;20069;-69
2023/06/02 02:00:29;;;;;;;4.05;2.50;;;14.50;67.90;;;;;;4960310;28;20591;-77
2023/06/02 02:02:59;;;;;;;4.68;2.33;;;14.50;68.00;;;;;;4992972;28;20211;-75
2023/06/02 02:05:25;;;;;;;3.95;2.45;;;14.50;67.90;;;;;;4996937;28;20116;-76
2023/06/02 02:07:52;;;;;;;3.40;2.20;;;14.50;67.80;;;;;;4999596;28;20056;-76
2023/06/02 02:10:19;;;;;;;4.88;2.88;;;14.50;67.90;;;;;;4997836;28;20051;-75
2023/06/02 02:12:46;;;;;;;3.90;2.08;;;14.40;67.90;;;;;;4998216;28;20053;-68
2023/06/02 02:15:15;;;;;;;3.35;2.22;;;14.30;68.10;;;;;;4978555;28;20050;-68
2023/06/02 02:17:47;;;;;;;4.70;2.40;;;14.30;68.10;;;;;;4997565;28;20408;-62
2023/06/02 02:20:16;;;;;;;4.25;2.10;;;14.30;68.20;;;;;;4998580;28;20058;-62
2023/06/02 02:22:45;;;;;;;3.05;1.70;;;14.20;68.30;;;;;;5000760;28;20505;-62
2023/06/02 02:25:12;;;;;;;4.78;2.10;;;14.20;68.40;;;;;;4967863;28;20508;-62
2023/06/02 02:27:39;;;;;;;5.80;1.95;;;14.20;68.50;;;;;;4988584;28;20046;-72
2023/06/02 02:30:07;;;;;;;5.47;2.17;;;14.20;68.60;;;;;;4980792;28;20563;-72
2023/06/02 02:32:39;;;;;;;3.88;1.88;;;14.20;68.60;;;;;;4996267;28;20077;-75
2023/06/02 02:35:07;;;;;;;5.68;2.42;;;14.20;68.60;;;;;;4996081;28;20072;-76
2023/06/02 02:37:35;;;;;;;4.00;2.03;;;14.10;68.70;;;;;;4975200;28;20710;-73
2023/06/02 02:40:04;;;;;;;4.15;2.15;;;14.10;68.80;;;;;;4997173;28;20540;-73
2023/06/02 02:42:33;;;;;;;4.47;2.13;;;14.10;68.80;;;;;;4996159;28;20421;-68
2023/06/02 02:45:01;;;;;;;3.53;1.70;;;14.10;68.70;;;;;;4978592;28;20054;-69
2023/06/02 02:47:28;;;;;;;3.40;1.98;;;14.10;68.80;;;;;;4997830;28;20049;-80
2023/06/02 02:49:56;;;;;;;5.10;2.25;;;14.00;68.90;;;;;;4995278;28;20058;-81
2023/06/02 02:52:24;;;;;;;4.22;1.95;;;13.90;69.10;;;;;;4997073;28;20058;-70
2023/06/02 02:54:50;;;;;;;3.92;2.22;;;13.90;69.30;;;;;;4980029;28;20061;-70
2023/06/02 02:57:17;;;;;;;3.47;1.90;;;13.80;69.40;;;;;;4979900;28;20460;-68
2023/06/02 02:59:44;;;;;;;4.97;2.13;;;13.80;69.40;;;;;;4997582;28;20066;-68
2023/06/02 03:02:12;;;;;;;3.42;2.00;;;13.80;69.40;;;;;;4975727;28;20100;-70
2023/06/02 03:04:41;;;;;;;5.72;2.00;;;13.70;69.40;;;;;;4996538;28;20394;-69
2023/06/02 03:07:10;;;;;;;4.65;2.45;;;13.80;69.30;;;;;;4977853;28;20045;-74
2023/06/02 03:09:37;;;;;;;3.58;2.03;;;13.70;69.50;;;;;;4981103;28;20057;-76
2023/06/02 03:12:04;;;;;;;4.07;2.28;;;13.60;69.80;;;;;;4991549;28;20049;-69
2023/06/02 03:14:32;;;;;;;3.92;1.90;;;13.60;70.00;;;;;;4981288;28;20050;-70
2023/06/02 03:17:02;;;;;;;4.18;2.20;;;13.50;69.90;;;;;;4978652;28;20468;-62
2023/06/02 03:19:30;;;;;;;3.95;2.25;;;13.50;70.20;;;;;;4977234;28;20593;-62
2023/06/02 03:21:57;;;;;;;4.85;2.45;;;13.40;70.30;;;;;;4977027;28;20566;-72
2023/06/02 03:24:28;;;;;;;5.50;2.15;;;13.40;70.60;;;;;;4987783;28;20065;-72
2023/06/02 03:26:59;;;;;;;5.75;2.50;;;13.40;70.70;;;;;;4990701;28;20046;-62
2023/06/02 03:29:26;;;;;;;4.38;1.95;;;13.30;70.60;;;;;;4996629;28;20061;-62
2023/06/02 03:31:55;;;;;;;4.03;2.22;;;13.20;70.70;;;;;;4996775;28;20421;-68
2023/06/02 03:34:25;;;;;;;4.55;2.67;;;13.20;70.90;;;;;;4996901;28;20406;-68
2023/06/02 03:36:53;;;;;;;4.30;2.03;;;13.20;70.80;;;;;;4979346;28;20047;-69
2023/06/02 03:39:20;;;;;;;3.00;2.00;;;13.10;71.10;;;;;;4994670;28;20628;-70
2023/06/02 03:41:49;;;;;;;3.80;2.33;;;13.10;71.30;;;;;;4978546;28;20123;-76
2023/06/02 03:44:16;;;;;;;4.53;2.08;;;13.10;71.20;;;;;;4962930;28;20521;-76
2023/06/02 03:46:42;;;;;;;3.80;2.10;;;13.10;71.00;;;;;;4979565;28;20125;-72
2023/06/02 03:49:09;;;;;;;3.60;1.90;;;13.00;71.40;;;;;;4991714;28;20136;-70
2023/06/02 03:51:36;;;;;;;4.55;2.22;;;13.00;71.60;;;;;;4980122;28;20448;-68
2023/06/02 03:54:05;;;;;;;4.40;2.42;;;13.00;71.70;;;;;;4998438;28;20046;-68
2023/06/02 03:56:33;;;;;;;3.15;2.15;;;13.00;71.60;;;;;;4978912;28;20050;-76
2023/06/02 03:59:02;;;;;;;4.32;1.92;;;13.00;71.60;;;;;;4978570;28;20074;-76
2023/06/02 04:01:31;;;;;;;4.10;2.17;;;13.00;71.60;;;;;;4986295;28;20164;-68
2023/06/02 04:03:59;;;;;;;5.25;2.22;;;13.00;71.50;;;;;;4978173;28;20054;-68
2023/06/02 04:06:28;;;;;;;4.68;2.08;;;13.00;71.40;;;;;;4994230;28;20058;-67
2023/06/02 04:08:55;;;;;;;3.13;1.80;;;13.10;71.30;;;;;;4989986;28;20145;-68
2023/06/02 04:11:22;;;;;;;4.32;2.40;;;13.10;71.30;;;;;;4974742;28;20042;-62
2023/06/02 04:13:51;;;;;;;4.28;2.40;;;13.20;71.20;;;;;;4978453;28;20063;-63
2023/06/02 04:16:19;;;;;;;4.90;2.42;;;13.20;71.30;;;;;;4973285;28;20129;-67
2023/06/02 04:18:47;;;;;;;4.25;2.40;;;13.20;71.30;;;;;;4978945;28;20139;-68
2023/06/02 04:21:14;;;;;;;4.22;2.80;;;13.30;71.30;;;;;;4980019;28;20045;-68
2023/06/02 04:23:43;;;;;;;4.47;2.67;;;13.30;71.40;;;;;;4979332;28;20128;-68
2023/06/02 04:26:10;;;;;;;4.75;2.53;;;13.40;71.20;;;;;;4976362;28;20146;-69
2023/06/02 04:28:37;;;;;;;5.93;2.70;;;13.40;71.40;;;;;;4996778;28;20594;-69
2023/06/02 04:31:05;;;;;;;5.10;2.75;;;13.40;71.50;;;;;;4971190;28;20104;-62
2023/06/02 04:33:37;;;;;;;4.25;2.47;;;13.40;71.40;;;;;;4969143;28;20067;-62
2023/06/02 04:36:07;;;;;;;4.07;2.42;;;13.40;71.30;;;;;;4989183;28;20045;-69
2023/06/02 04:38:34;;;;;;;4.95;2.42;;;13.50;71.00;;;;;;4979373;28;20056;-69
2023/06/02 04:41:02;;;;;;;4.90;2.58;;;13.50;70.90;;;;;;4969698;28;20085;-67
2023/06/02 04:43:31;;;;;;;4.88;2.72;;;13.50;71.10;;;;;;4978676;28;20199;-67
2023/06/02 04:46:01;;;;;;;7.97;2.90;;;13.40;71.00;;;;;;4976941;28;20425;-81
2023/06/02 04:48:28;;;;;;;5.88;2.50;;;13.50;71.00;;;;;;4992855;28;20065;-80
2023/06/02 04:50:56;;;;;;;5.35;2.80;;;13.50;71.30;;;;;;4960388;28;20105;-73
2023/06/02 04:53:23;;;;;;;5.75;3.05;;;13.50;71.30;;;;;;4989788;28;20122;-71
2023/06/02 04:55:50;;;;;;;7.28;3.13;;;13.60;71.20;;;;;;4995561;28;20493;-62
2023/06/02 04:58:18;;;;;;;6.35;3.00;;;13.60;71.30;;;;;;4991213;28;20513;-63
2023/06/02 05:00:44;;;;;;;5.45;3.30;;;13.60;71.40;;;;;;4992805;28;20481;-67
2023/06/02 05:03:11;;;;;;;5.95;3.00;;;13.60;71.40;;;;;;4976285;28;20081;-67
2023/06/02 05:05:38;;;;;;;5.00;2.95;;;13.70;71.30;;;;;;4994979;28;20054;-67
2023/06/02 05:08:07;;;;;;;6.95;3.10;;;13.80;71.10;;;;;;4977460;28;20129;-68
2023/06/02 05:10:34;;;;;;;6.75;3.10;;;13.90;71.00;;;;;;4981557;28;20081;-80
2023/06/02 05:13:01;;;;;;;6.80;3.38;;;13.90;71.00;;;;;;4995939;28;20062;-81
2023/06/02 05:15:31;;;;;;;6.45;3.40;;;14.00;70.90;;;;;;4991691;28;20051;-74
2023/06/02 05:17:59;;;;;;;5.85;3.17;;;13.90;71.10;;;;;;4978721;28;20050;-71
2023/06/02 05:20:26;;;;;;;8.70;3.92;;;14.00;70.90;;;;;;4976485;28;20070;-71
2023/06/02 05:22:54;;;;;;;7.65;3.83;;;14.10;69.70;;;;;;4972882;28;20061;-71
2023/06/02 05:25:23;;;;;;;8.05;4.22;;;14.30;69.30;;;;;;4976261;28;20124;-72
2023/06/02 05:27:50;;;;;;;10.23;4.88;;;14.40;68.90;;;;;;4993472;28;20051;-71
2023/06/02 05:30:17;;;;;;;8.90;4.50;;;14.40;67.70;;;;;;4973112;28;20494;-71
2023/06/02 05:32:45;;;;;;;7.15;4.32;;;14.40;67.70;;;;;;4975820;28;20049;-69
2023/06/02 05:35:13;;;;;;;7.90;4.45;;;14.50;67.10;;;;;;4968922;28;20130;-69
2023/06/02 05:37:40;;;;;;;8.48;4.07;;;14.50;66.90;;;;;;4977904;28;20049;-63
2023/06/02 05:40:09;;;;;;;6.68;3.75;;;14.60;66.50;;;;;;4975405;28;20049;-64
2023/06/02 05:42:38;;;;;;;7.10;4.22;;;14.60;66.70;;;;;;4974637;28;20390;-84
2023/06/02 05:45:06;;;;;;;8.40;4.22;;;14.80;66.40;;;;;;4977757;28;20517;-84
2023/06/02 05:47:35;;;;;;;10.88;4.72;;;14.90;66.00;;;;;;4984628;28;20132;-68
2023/06/02 05:50:04;;;;;;;7.60;4.40;;;14.90;65.50;;;;;;4979175;28;20090;-68
2023/06/02 05:52:32;;;;;;;8.05;3.88;;;14.90;65.50;;;;;;4967680;28;20054;-62
2023/06/02 05:54:59;;;;;;;9.00;4.07;;;14.90;65.50;;;;;;4992066;28;20054;-63
2023/06/02 05:57:26;;;;;;;7.82;3.75;;;14.80;65.00;;;;;;4976448;28;20053;-69
2023/06/02 05:59:55;;;;;;;7.85;3.97;;;14.80;65.20;;;;;;4970306;28;20058;-69
2023/06/02 06:02:23;;;;;;;8.75;4.13;;;14.80;65.20;;;;;;4982309;28;20146;-69
2023/06/02 06:04:50;;;;;;;8.25;4.53;;;14.80;64.80;;;;;;4989643;28;20051;-70
2023/06/02 06:07:17;;;;;;;7.53;4.65;;;14.80;64.40;;;;;;4981073;28;20049;-63
2023/06/02 06:09:44;;;;;;;5.70;3.85;;;14.70;64.10;;;;;;4998934;28;20050;-63
2023/06/02 06:12:11;;;;;;;8.30;4.10;;;14.90;64.20;;;;;;4996545;28;20097;-63
2023/06/02 06:14:39;;;;;;;7.93;3.90;;;14.90;64.10;;;;;;4991713;28;20074;-62
2023/06/02 06:17:08;;;;;;;8.00;4.18;;;14.90;63.70;;;;;;4978631;28;20058;-63
2023/06/02 06:19:35;;;;;;;8.15;4.35;;;15.00;63.80;;;;;;4977777;28;20046;-63
2023/06/02 06:22:02;;;;;;;6.53;4.10;;;15.00;63.70;;;;;;4998155;28;20129;-63
2023/06/02 06:24:30;;;;;;;6.68;3.63;;;15.10;63.30;;;;;;4977006;28;20066;-61
2023/06/02 06:26:57;;;;;;;9.45;4.82;;;15.20;63.40;;;;;;4995664;28;20564;-63
2023/06/02 06:29:24;;;;;;;7.30;4.50;;;15.20;63.10;;;;;;4995089;28;20047;-63
2023/06/02 06:31:52;;;;;;;8.23;3.85;;;15.30;62.70;;;;;;4978862;28;20125;-63
2023/06/02 06:34:21;;;;;;;8.35;4.32;;;15.40;62.20;;;;;;4988501;28;20054;-63
2023/06/02 06:36:48;;;;;;;9.38;4.00;;;15.50;61.80;;;;;;4992435;28;20378;-63
2023/06/02 06:39:16;;;;;;;9.43;4.30;;;15.60;61.50;;;;;;4981850;28;21013;-63
2023/06/02 06:41:43;;;;;;;6.53;4.18;;;15.70;61.20;;;;;;4989774;28;20490;-63
2023/06/02 06:44:28;;;;;;;5.82;3.35;;;15.80;60.20;;;;;;4992972;28;20568;-63
2023/06/02 06:46:55;;;;;;;9.52;3.90;;;16.00;60.00;;;;;;4995174;28;20038;-63
2023/06/02 06:49:23;;;;;;;6.85;3.58;;;16.20;59.60;;;;;;4995666;28;20038;-63
2023/06/02 06:51:50;;;;;;;9.15;4.43;;;16.20;59.20;;;;;;4994537;28;20137;-72
2023/06/02 06:54:17;;;;;;;8.68;4.32;;;16.30;58.90;;;;;;4977396;28;20054;-72
2023/06/02 06:56:45;;;;;;;8.15;3.55;;;16.40;59.00;;;;;;4994286;28;20050;-71
2023/06/02 06:59:15;;;;;;;7.10;3.72;;;16.60;58.60;;;;;;4993628;28;20046;-71
2023/06/02 07:01:43;;;;;;;8.60;3.83;;;16.60;58.50;;;;;;4988898;28;20057;-71
2023/06/02 07:04:10;;;;;;;5.28;3.10;;;16.90;57.70;;;;;;4992120;28;20058;-71
2023/06/02 07:06:39;;;;;;;6.15;3.47;;;16.70;57.30;;;;;;4990779;28;20560;-71
2023/06/02 07:09:07;;;;;;;6.30;3.30;;;16.80;57.30;;;;;;4995674;28;20486;-71
2023/06/02 07:11:34;;;;;;;7.63;3.20;;;16.80;57.30;;;;;;4993609;28;20631;-72
2023/06/02 07:14:01;;;;;;;6.38;3.28;;;16.90;57.30;;;;;;4994678;28;20050;-71
2023/06/02 07:16:28;;;;;;;5.68;2.80;;;17.10;57.00;;;;;;4995810;28;20058;-71
2023/06/02 07:18:55;;;;;;;7.47;3.53;;;17.10;56.90;;;;;;4992945;28;20053;-71
2023/06/02 07:21:22;;;;;;;6.88;2.72;;;17.30;56.40;;;;;;4994356;28;20121;-68
2023/06/02 07:23:50;;;;;;;5.38;3.03;;;17.50;56.20;;;;;;4993845;28;20411;-68
2023/06/02 07:26:17;;;;;;;4.70;2.75;;;17.70;55.90;;;;;;4995975;28;20069;-68
2023/06/02 07:28:44;;;;;;;5.78;2.97;;;17.90;55.50;;;;;;4994219;28;20054;-68
2023/06/02 07:31:11;;;;;;;6.75;3.00;;;18.10;55.20;;;;;;4995236;28;20553;-71
2023/06/02 07:33:38;;;;;;;8.10;2.95;;;18.10;54.90;;;;;;4994372;28;20068;-71
2023/06/02 07:36:05;;;;;;;7.60;2.72;;;18.10;54.80;;;;;;4993563;28;20046;-71
2023/06/02 07:38:32;;;;;;;5.60;2.90;;;18.10;54.30;;;;;;4997090;28;20113;-72
2023/06/02 07:41:00;;;;;;;5.63;2.60;;;18.00;54.20;;;;;;4996372;28;20054;-71
2023/06/02 07:43:27;;;;;;;5.00;2.85;;;18.10;54.30;;;;;;4995930;28;20053;-71
2023/06/02 07:45:54;;;;;;;6.00;2.40;;;18.20;53.90;;;;;;4991348;28;20053;-63
2023/06/02 07:48:21;;;;;;;5.28;2.50;;;18.30;53.30;;;;;;4996291;28;20039;-63
2023/06/02 07:50:48;;;;;;;7.38;2.80;;;18.40;53.00;;;;;;4994223;28;20060;-83
2023/06/02 07:53:15;;;;;;;6.05;2.53;;;18.50;53.00;;;;;;4994472;28;20065;-83
2023/06/02 07:55:42;;;;;;;5.97;2.60;;;18.60;53.10;;;;;;4993150;28;20066;-63
2023/06/02 07:58:11;;;;;;;6.95;2.83;;;18.70;52.30;;;;;;4994933;28;20046;-63
2023/06/02 08:00:38;;;;;;;5.15;2.50;;;18.80;52.50;;;;;;4995354;28;20154;-68
2023/06/02 08:03:05;;;;;;;5.43;2.20;;;18.90;52.30;;;;;;4993953;28;20053;-68
2023/06/02 08:05:32;;;;;;;5.80;2.33;;;18.90;52.50;;;;;;4993388;28;20057;-68
2023/06/02 08:07:59;;;;;;;5.00;2.10;;;19.00;52.50;;;;;;4996024;28;20099;-68
2023/06/02 08:10:25;;;;;;;5.85;2.20;;;19.10;51.80;;;;;;4995783;28;20054;-68
2023/06/02 08:12:52;;;;;;;6.78;2.40;;;19.40;51.40;;;;;;4994958;28;20053;-68
2023/06/02 08:15:21;;;;;;;4.75;2.60;;;19.40;50.60;;;;;;4992478;28;20052;-69
2023/06/02 08:17:48;;;;;;;5.03;2.30;;;19.40;50.70;;;;;;4997152;28;20053;-69
2023/06/02 08:20:16;;;;;;;6.30;2.22;;;19.50;50.40;;;;;;4995868;28;20496;-69
2023/06/02 08:22:44;;;;;;;5.78;2.22;;;19.60;50.60;;;;;;4991650;28;20053;-69
2023/06/02 08:25:12;;;;;;;4.93;2.05;;;19.70;50.30;;;;;;4996025;28;20421;-69
2023/06/02 08:27:41;;;;;;;5.15;2.08;;;19.80;50.20;;;;;;4991795;28;20054;-69
2023/06/02 08:30:09;;;;;;;5.63;2.10;;;19.90;49.50;;;;;;4994578;28;20053;-68
2023/06/02 08:32:37;;;;;;;5.75;2.22;;;20.10;49.30;;;;;;4991768;28;20058;-69
2023/06/02 08:35:05;;;;;;;5.03;1.85;;;20.10;49.90;;;;;;4996691;28;20057;-68
2023/06/02 08:37:33;;;;;;;4.15;1.80;;;20.20;49.20;;;;;;4989069;28;20096;-68
2023/06/02 08:40:00;;;;;;;6.53;1.92;;;20.30;48.90;;;;;;4973763;28;20042;-69
2023/06/02 08:42:28;;;;;;;4.50;1.85;;;20.30;49.00;;;;;;4979150;28;20046;-68
2023/06/02 08:44:55;;;;;;;5.45;1.95;;;20.40;48.80;;;;;;4996234;28;20076;-68
2023/06/02 08:47:27;;;;;;;3.78;1.83;;;20.50;48.00;;;;;;4994973;28;20125;-69
2023/06/02 08:49:56;;;;;;;6.93;1.98;;;20.40;47.50;;;;;;4996282;28;20072;-69
2023/06/02 08:52:25;;;;;;;4.53;1.73;;;20.40;47.80;;;;;;4996965;28;20057;-69
2023/06/02 08:54:52;;;;;;;5.90;2.08;;;20.50;47.30;;;;;;4993884;28;20050;-68
2023/06/02 08:57:21;;;;;;;7.07;2.25;;;20.60;47.30;;;;;;4994328;28;20081;-68
2023/06/02 08:59:49;;;;;;;6.85;2.10;;;20.80;47.70;;;;;;4993576;28;20060;-68
2023/06/02 09:02:18;;;;;;;4.78;1.90;;;21.00;47.30;;;;;;4994324;28;20046;-69
2023/06/02 09:04:45;;;;;;;5.85;2.03;;;21.00;47.10;;;;;;4987652;28;20053;-69
2023/06/02 09:07:23;;;;;;;5.90;1.80;;;21.10;47.20;;;;;;4996294;28;20525;-70
2023/06/02 09:09:53;;;;;;;4.70;2.00;;;20.90;46.10;;;;;;4996546;28;20494;-68
2023/06/02 09:12:21;;;;;;;6.18;1.92;;;21.10;46.20;;;;;;4993524;28;20046;-69
2023/06/02 09:14:49;;;;;;;4.70;1.63;;;21.10;46.30;;;;;;4993155;28;20055;-70
2023/06/02 09:17:27;;;;;;;4.57;1.67;;;21.10;45.90;;;;;;4995613;28;20518;-70
2023/06/02 09:20:01;;;;;;;5.43;1.80;;;21.10;45.60;;;;;;4978603;28;20042;-69
2023/06/02 09:22:29;;;;;;;5.47;1.90;;;21.20;45.50;;;;;;4991105;28;20058;-69
2023/06/02 09:24:56;;;;;;;6.50;1.95;;;21.30;45.50;;;;;;4994199;28;20053;-69
2023/06/02 09:27:24;;;;;;;5.70;2.08;;;21.50;45.50;;;;;;4975580;28;20515;-69
2023/06/02 09:29:59;;;;;;;6.30;2.13;;;21.60;45.40;;;;;;4995597;28;20517;-69
2023/06/02 09:32:26;;;;;;;7.65;2.08;;;21.60;44.90;;;;;;4990317;28;20406;-69
2023/06/02 09:34:52;;;;;;;5.05;2.08;;;21.70;45.10;;;;;;4996490;28;20156;-69
2023/06/02 09:37:20;;;;;;;5.03;2.22;;;21.70;44.60;;;;;;4992601;28;20050;-70
2023/06/02 09:39:52;;;;;;;4.93;2.10;;;21.70;44.30;;;;;;4997511;28;20189;-69
2023/06/02 09:42:21;;;;;;;5.05;1.92;;;21.80;44.80;;;;;;4998078;28;20129;-70
2023/06/02 09:45:06;;;;;;;5.80;2.40;;;21.90;44.70;;;;;;4997502;28;20192;-70
2023/06/02 09:47:38;;;;;;;5.15;1.88;;;21.90;44.00;;;;;;4997869;28;20050;-70
2023/06/02 09:50:06;;;;;;;5.25;2.30;;;22.00;43.50;;;;;;5000614;28;20046;-69
2023/06/02 09:52:33;;;;;;;5.72;1.83;;;22.10;44.00;;;;;;4995908;28;20132;-69
2023/06/02 09:55:01;;;;;;;7.57;2.22;;;22.20;44.00;;;;;;4998076;28;20050;-69
2023/06/02 09:57:31;;;;;;;6.00;2.35;;;22.30;44.60;;;;;;4999130;28;20054;-70
2023/06/02 09:59:59;;;;;;;6.97;2.22;;;22.30;44.70;;;;;;4999727;28;20054;-69
2023/06/02 10:02:27;;;;;;;5.03;2.03;;;22.40;44.50;;;;;;4997287;28;20034;-69
2023/06/02 10:04:54;;;;;;;5.15;1.92;;;22.50;44.10;;;;;;4998759;28;20051;-69
2023/06/02 10:07:37;;;;;;;6.35;2.22;;;22.50;43.70;;;;;;4997340;28;20062;-69
2023/06/02 10:10:21;;;;;;;7.03;2.20;;;22.50;43.30;;;;;;4994456;28;20042;-69
2023/06/02 10:13:04;;;;;;;5.13;2.10;;;22.50;43.80;;;;;;4994482;28;20104;-69
2023/06/02 10:15:48;;;;;;;7.43;2.47;;;22.50;43.50;;;;;;4998726;28;20062;-70
2023/06/02 10:18:33;;;;;;;6.78;2.10;;;22.50;43.40;;;;;;4994363;28;20536;-69
2023/06/02 10:21:10;;;;;;;4.35;1.98;;;22.50;43.70;;;;;;4996405;28;20053;-69
2023/06/02 10:23:49;;;;;;;7.05;3.15;;;22.70;43.70;;;;;;4999142;28;20133;-69
2023/06/02 10:26:30;;;;;;;8.07;3.47;;;22.80;43.40;;;;;;4995369;28;20050;-69
2023/06/02 10:29:00;;;;;;;5.88;2.97;;;22.90;42.60;;;;;;4970831;28;20505;-69
2023/06/02 10:31:31;;;;;;;6.35;2.65;;;22.90;43.00;;;;;;4997275;28;20054;-69
2023/06/02 10:34:00;;;;;;;6.38;2.53;;;22.90;43.60;;;;;;4998175;28;20090;-69
2023/06/02 10:36:27;;;;;;;4.82;2.22;;;22.90;43.60;;;;;;4996019;28;20054;-70
2023/06/02 10:38:55;;;;;;;5.75;2.30;;;23.10;43.30;;;;;;4979488;28;20413;-69
2023/06/02 10:41:56;;;;;;;8.60;3.50;;;23.10;42.90;;;;;;4997014;28;20406;-70
2023/06/02 10:44:25;;;;;;;8.88;3.95;;;23.20;42.80;;;;;;4996751;28;20057;-69
2023/06/02 10:47:11;;;;;;;;;;;23.30;42.70;;;;;;4997361;28;20046;-69
2023/06/02 10:49:53;;;;;;;5.70;2.90;;;23.30;42.40;;;;;;4996248;28;19930;-70
2023/06/02 10:52:20;;;;;;;6.80;2.83;;;23.30;42.70;;;;;;4995509;28;20050;-69
2023/06/02 10:55:28;;;;;;;4.57;2.20;;;23.30;43.00;;;;;;4996448;28;20054;-69
2023/06/02 10:57:56;;;;;;;3.35;1.92;;;23.40;42.50;;;;;;4996290;28;20054;-68
2023/06/02 11:00:48;;;;;;;6.28;2.30;;;23.40;42.20;;;;;;4995817;28;20454;-68
2023/06/02 11:03:35;;;;;;;4.40;1.83;;;23.50;42.50;;;;;;4993160;28;20043;-69
2023/06/02 11:06:28;;;;;;;4.40;1.95;;;23.60;42.30;;;;;;4996816;28;20054;-69
2023/06/02 11:09:39;;;;;;;5.03;1.80;;;23.50;42.60;;;;;;4946500;28;20486;-69
2023/06/02 11:12:06;;;;;;;4.35;1.98;;;23.50;42.10;;;;;;4990172;28;20046;-69
2023/06/02 11:15:15;;;;;;;4.38;2.47;;;23.50;42.20;;;;;;4998081;28;20046;-68
2023/06/02 11:17:47;;;;;;;4.60;1.83;;;23.60;42.20;;;;;;4997346;28;20092;-69
2023/06/02 11:20:15;;;;;;;5.07;2.17;;;23.60;42.20;;;;;;4994169;28;20120;-70
2023/06/02 11:22:43;;;;;;;4.03;2.17;;;23.60;41.50;;;;;;4998693;28;20047;-68
2023/06/02 11:25:10;;;;;;;6.30;2.40;;;23.60;41.90;;;;;;4996959;28;20049;-70
2023/06/02 11:27:40;;;;;;;4.75;2.00;;;23.60;41.90;;;;;;4992860;28;20049;-68
2023/06/02 11:30:12;;;;;;;4.90;2.33;;;23.60;41.60;;;;;;4996875;28;20053;-69
2023/06/02 11:32:39;;;;;;;5.60;2.10;;;23.60;41.40;;;;;;4993875;28;20105;-69
2023/06/02 11:35:10;;;;;;;7.57;2.53;;;23.60;41.30;;;;;;4995728;28;20058;-69
2023/06/02 11:37:40;;;;;;;5.63;2.53;;;23.80;41.50;;;;;;4990200;28;20053;-67
2023/06/02 11:40:12;;;;;;;5.07;2.50;;;23.80;41.20;;;;;;4997064;28;20132;-68
2023/06/02 11:42:41;;;;;;;5.90;2.55;;;23.80;41.40;;;;;;4996195;28;20264;-68
2023/06/02 11:45:20;;;;;;;8.23;2.83;;;23.80;41.50;;;;;;4995492;28;20157;-68
2023/06/02 11:47:47;;;;;;;7.20;2.60;;;23.90;41.40;;;;;;4992785;28;20050;-68
2023/06/02 11:50:19;;;;;;;6.07;2.30;;;23.90;41.70;;;;;;4995697;28;20136;-68
2023/06/02 11:52:46;;;;;;;5.30;2.65;;;23.90;41.00;;;;;;4996448;28;20061;-68
2023/06/02 11:55:13;;;;;;;5.13;2.35;;;23.90;40.80;;;;;;4991204;28;20034;-68
2023/06/02 11:57:43;;;;;;;6.50;2.40;;;23.90;41.00;;;;;;4996599;28;20132;-69
2023/06/02 12:00:15;;;;;;;9.02;2.35;;;24.00;41.00;;;;;;4992535;28;20547;-68
2023/06/02 12:02:51;;;;;;;6.22;2.25;;;23.90;40.70;;;;;;4995127;28;20043;-68
2023/06/02 12:05:34;;;;;;;6.82;2.20;;;23.90;40.30;;;;;;4995706;28;20062;-68
2023/06/02 12:08:12;;;;;;;5.40;2.10;;;23.90;40.70;;;;;;4996667;28;20050;-68
2023/06/02 12:10:40;;;;;;;9.02;2.30;;;23.90;40.30;;;;;;4992785;28;20104;-68
2023/06/02 12:13:07;;;;;;;5.70;2.53;;;24.00;40.40;;;;;;4996508;28;20072;-69
2023/06/02 12:15:35;;;;;;;7.38;4.78;;;24.00;40.20;;;;;;4993244;28;20061;-69
2023/06/02 12:18:03;;;;;;;8.15;4.10;;;24.00;40.10;;;;;;4996185;28;20053;-69
2023/06/02 12:20:43;;;;;;;9.90;3.60;;;24.00;40.20;;;;;;4993356;28;20512;-69
2023/06/02 12:23:11;;;;;;;6.80;2.58;;;24.00;39.90;;;;;;4993730;28;20264;-69
2023/06/02 12:25:38;;;;;;;4.82;2.20;;;24.10;39.70;;;;;;4993909;28;20046;-67
2023/06/02 12:28:11;;;;;;;7.28;2.63;;;24.00;39.50;;;;;;4992434;28;20445;-69
2023/06/02 12:30:38;;;;;;;6.85;2.50;;;24.00;39.10;;;;;;4996597;28;20120;-68
2023/06/02 12:33:06;;;;;;;5.95;2.35;;;24.00;39.00;;;;;;4995277;28;20053;-68
2023/06/02 12:35:33;;;;;;;5.82;2.55;;;24.00;39.40;;;;;;4996221;28;20500;-68
2023/06/02 12:38:03;;;;;;;6.40;2.78;;;24.00;39.30;;;;;;4995123;28;20054;-68
2023/06/02 12:40:29;;;;;;;;;;;24.10;39.50;;;;;;4996719;28;20129;-68
2023/06/02 12:42:56;;;;;;;6.82;3.53;;;24.00;39.10;;;;;;4993237;28;19921;-68
2023/06/02 12:45:23;;;;;;;7.30;3.22;;;24.00;39.20;;;;;;4992252;28;20057;-68
2023/06/02 12:47:52;;;;;;;7.15;2.80;;;23.90;39.30;;;;;;4996412;28;20042;-68
2023/06/02 12:50:19;;;;;;;5.68;2.40;;;23.80;39.10;;;;;;4994098;28;20065;-69
2023/06/02 12:52:46;;;;;;;4.80;2.30;;;23.70;39.00;;;;;;4994298;28;20068;-68
2023/06/02 12:55:14;;;;;;;7.95;2.63;;;23.60;39.20;;;;;;4994198;28;20529;-68
2023/06/02 12:57:41;;;;;;;8.13;2.85;;;23.80;39.20;;;;;;4996336;28;20493;-68
2023/06/02 13:00:10;;;;;;;10.02;3.20;;;23.80;39.10;;;;;;4990764;28;20062;-69